createdAt,value
2022-11-07T00:00:50.318Z,12.35
2022-11-07T00:05:51.858Z,12.37
2022-11-07T00:10:54.482Z,12.34
2022-11-07T00:16:00.413Z,12.43
2022-11-07T00:21:06.884Z,12.49
2022-11-07T00:26:11.104Z,12.43
2022-11-07T00:31:13.872Z,12.40
2022-11-07T00:36:25.546Z,12.26
2022-11-07T00:41:27.391Z,12.26
2022-11-07T00:46:28.826Z,12.27
2022-11-07T00:51:30.197Z,12.32
2022-11-07T00:56:31.741Z,12.32
2022-11-07T01:01:34.308Z,12.38
2022-11-07T01:06:38.647Z,12.39
2022-11-07T01:11:41.539Z,12.46
2022-11-07T01:16:43.693Z,12.44
2022-11-07T01:21:45.586Z,12.42
2022-11-07T01:26:51.685Z,12.52
2022-11-07T01:31:53.093Z,12.55
2022-11-07T01:36:54.453Z,12.55
2022-11-07T01:41:56.019Z,12.60
2022-11-07T01:47:00.021Z,12.63
2022-11-07T01:52:10.194Z,12.64
2022-11-07T01:57:19.398Z,12.66
2022-11-07T02:02:24.087Z,12.69
2022-11-07T02:07:26.062Z,12.72
2022-11-07T02:12:27.811Z,12.79
2022-11-07T02:17:29.448Z,12.70
2022-11-07T02:23:16.139Z,12.64
2022-11-07T02:28:20.678Z,12.62
2022-11-07T02:33:23.246Z,12.59
2022-11-07T02:38:37.061Z,12.57
2022-11-07T02:43:42.945Z,12.59
2022-11-07T02:48:48.041Z,12.69
2022-11-07T02:53:49.500Z,12.73
2022-11-07T02:58:54.707Z,12.77
2022-11-07T03:03:56.550Z,12.81
2022-11-07T03:08:57.898Z,12.72
2022-11-07T03:13:59.281Z,12.77
2022-11-07T03:19:00.699Z,12.83
2022-11-07T03:24:02.096Z,12.94
2022-11-07T03:29:03.493Z,12.93
2022-11-07T03:34:04.869Z,12.97
2022-11-07T03:39:06.414Z,13.00
2022-11-07T03:44:07.947Z,13.02
2022-11-07T03:49:09.334Z,13.03
2022-11-07T03:54:10.745Z,13.04
2022-11-07T03:59:12.112Z,13.09
2022-11-07T04:04:13.504Z,13.03
2022-11-07T04:09:14.937Z,13.05
2022-11-07T04:14:34.999Z,13.02
2022-11-07T04:19:36.369Z,13.04
2022-11-07T04:24:41.562Z,13.01
2022-11-07T04:29:46.956Z,13.01
2022-11-07T04:34:48.322Z,13.03
2022-11-07T04:39:49.646Z,12.99
2022-11-07T04:44:51.152Z,12.94
2022-11-07T04:49:52.514Z,12.98
2022-11-07T04:54:53.936Z,12.92
2022-11-07T04:59:55.295Z,12.91
2022-11-07T05:04:56.651Z,12.81
2022-11-07T05:09:57.986Z,12.77
2022-11-07T05:14:59.369Z,12.76
2022-11-07T05:20:00.775Z,12.79
2022-11-07T05:25:02.176Z,12.84
2022-11-07T05:30:05.257Z,12.81
2022-11-07T05:35:06.869Z,12.86
2022-11-07T05:40:08.891Z,12.88
2022-11-07T05:45:10.636Z,12.97
2022-11-07T05:50:11.963Z,13.05
2022-11-07T05:55:13.329Z,13.06
2022-11-07T06:00:16.022Z,13.10
2022-11-07T06:05:20.481Z,13.18
2022-11-07T06:10:25.853Z,13.23
2022-11-07T06:15:29.044Z,13.32
2022-11-07T06:20:30.711Z,13.36
2022-11-07T06:25:32.898Z,13.39
2022-11-07T06:30:35.095Z,13.45
2022-11-07T06:35:36.678Z,13.47
2022-11-07T06:40:42.454Z,13.46
2022-11-07T06:45:44.920Z,13.43
2022-11-07T06:50:46.317Z,13.53
2022-11-07T06:55:47.637Z,13.57
2022-11-07T07:00:49.273Z,13.55
2022-11-07T07:05:50.669Z,13.59
2022-11-07T07:10:51.998Z,13.65
2022-11-07T07:15:54.928Z,13.72
2022-11-07T07:21:07.050Z,13.74
2022-11-07T07:26:13.054Z,13.77
2022-11-07T07:31:14.349Z,13.73
2022-11-07T07:36:20.506Z,13.88
2022-11-07T07:41:22.398Z,13.90
2022-11-07T07:46:23.995Z,14.04
2022-11-07T07:51:25.417Z,14.06
2022-11-07T07:56:27.298Z,14.13
2022-11-07T08:01:29.267Z,14.20
2022-11-07T08:06:31.045Z,14.31
2022-11-07T08:11:32.495Z,14.46
2022-11-07T08:16:33.989Z,14.54
2022-11-07T08:21:35.344Z,14.69
2022-11-07T08:26:37.998Z,14.71
2022-11-07T08:31:39.423Z,14.80
2022-11-07T08:36:40.966Z,14.83
2022-11-07T08:41:42.382Z,14.91
2022-11-07T08:46:43.742Z,14.98
2022-11-07T08:51:45.134Z,14.99
2022-11-07T08:56:46.638Z,15.06
2022-11-07T09:02:28.077Z,15.20
2022-11-07T09:07:09.399Z,15.29
2022-11-07T09:12:10.804Z,15.34
2022-11-07T09:17:12.189Z,15.42
2022-11-07T09:22:14.226Z,15.35
2022-11-07T09:27:15.589Z,15.33
2022-11-07T09:32:42.692Z,15.35
2022-11-07T09:37:39.334Z,15.46
2022-11-07T09:42:47.859Z,15.55
2022-11-07T09:47:59.254Z,15.51
2022-11-07T09:53:22.608Z,15.57
2022-11-07T09:58:34.555Z,15.64
2022-11-07T10:03:38.554Z,15.73
2022-11-07T10:08:45.730Z,15.74
2022-11-07T10:13:52.559Z,15.79
2022-11-07T10:19:13.431Z,15.82
2022-11-07T10:24:31.536Z,15.97
2022-11-07T10:29:45.165Z,16.06
2022-11-07T10:34:54.591Z,16.04
2022-11-07T10:39:56.222Z,16.30
2022-11-07T10:44:59.283Z,16.40
2022-11-07T10:50:04.312Z,16.51
2022-11-07T10:55:08.082Z,16.50
2022-11-07T11:00:25.333Z,16.56
2022-11-07T11:05:33.715Z,16.56
2022-11-07T11:10:38.969Z,16.50
2022-11-07T11:15:45.645Z,16.31
2022-11-07T11:21:01.429Z,16.07
2022-11-07T11:26:08.818Z,16.10
2022-11-07T11:31:29.226Z,15.91
2022-11-07T11:36:39.285Z,15.83
2022-11-07T11:41:51.625Z,15.81
2022-11-07T11:47:27.024Z,15.87
2022-11-07T11:52:34.380Z,16.15
2022-11-07T11:57:50.133Z,16.31
2022-11-07T12:03:12.515Z,16.42
2022-11-07T12:08:44.136Z,16.65
2022-11-07T12:13:57.838Z,16.84
2022-11-07T12:19:29.404Z,16.84
2022-11-07T12:24:45.950Z,16.82
2022-11-07T12:30:04.219Z,16.92
2022-11-07T12:35:30.985Z,16.96
2022-11-07T12:40:54.342Z,17.03
2022-11-07T12:46:16.557Z,17.12
2022-11-07T12:51:31.860Z,17.16
2022-11-07T12:56:36.020Z,17.15
2022-11-07T13:01:45.158Z,17.25
2022-11-07T13:06:59.517Z,17.13
2022-11-07T13:12:25.539Z,17.11
2022-11-07T13:17:41.643Z,17.09
2022-11-07T13:22:43.073Z,17.10
2022-11-07T13:27:53.254Z,17.07
2022-11-07T13:32:54.585Z,17.17
2022-11-07T13:38:15.365Z,17.13
2022-11-07T13:43:44.519Z,17.11
2022-11-07T13:48:53.637Z,17.12
2022-11-07T13:54:27.477Z,17.10
2022-11-07T13:59:42.176Z,17.15
2022-11-07T14:05:14.920Z,17.09
2022-11-07T14:10:22.825Z,17.01
2022-11-07T14:15:24.455Z,16.96
2022-11-07T14:20:26.025Z,16.92
2022-11-07T14:25:31.332Z,16.90
2022-11-07T14:30:32.821Z,16.77
2022-11-07T14:35:35.608Z,16.70
2022-11-07T14:40:37.866Z,16.71
2022-11-07T14:46:10.784Z,16.74
2022-11-07T14:51:03.249Z,16.75
2022-11-07T14:56:13.430Z,16.63
2022-11-07T15:01:25.704Z,16.65
2022-11-07T15:06:41.061Z,16.73
2022-11-07T15:11:58.471Z,16.62
2022-11-07T15:17:01.598Z,16.50
2022-11-07T15:22:05.120Z,16.54
2022-11-07T15:27:20.285Z,16.58
2022-11-07T15:32:24.663Z,16.61
2022-11-07T15:37:26.895Z,16.59
2022-11-07T15:42:28.414Z,16.59
2022-11-07T15:47:29.787Z,16.56
2022-11-07T15:52:31.108Z,16.51
2022-11-07T15:57:33.398Z,16.43
2022-11-07T16:02:34.866Z,16.41
2022-11-07T16:07:36.341Z,16.32
2022-11-07T16:12:37.698Z,16.32
2022-11-07T16:17:39.192Z,16.32
2022-11-07T16:22:40.567Z,16.30
2022-11-07T16:27:49.854Z,16.25
2022-11-07T16:32:51.212Z,16.19
2022-11-07T16:37:52.578Z,16.08
2022-11-07T16:42:53.921Z,16.06
2022-11-07T16:47:55.280Z,16.03
2022-11-07T16:52:56.627Z,15.95
2022-11-07T16:57:57.995Z,15.92
2022-11-07T17:02:59.508Z,15.86
2022-11-07T17:08:01.879Z,15.93
2022-11-07T17:13:03.232Z,15.95
2022-11-07T17:18:08.190Z,15.94
2022-11-07T17:23:09.872Z,15.92
2022-11-07T17:28:11.233Z,15.96
2022-11-07T17:33:12.616Z,16.04
2022-11-07T17:38:17.037Z,16.10
2022-11-07T17:43:18.854Z,16.11
2022-11-07T17:48:20.750Z,16.01
2022-11-07T17:53:22.086Z,16.11
2022-11-07T17:58:23.520Z,16.15
2022-11-07T18:03:24.952Z,16.15
2022-11-07T18:08:50.657Z,16.12
2022-11-07T18:13:50.549Z,16.05
2022-11-07T18:18:51.950Z,16.13
2022-11-07T18:23:53.647Z,16.05
2022-11-07T18:28:55.325Z,16.06
2022-11-07T18:33:58.798Z,15.98
2022-11-07T18:39:24.768Z,15.93
2022-11-07T18:44:26.124Z,15.96
2022-11-07T18:49:27.494Z,15.84
2022-11-07T18:54:29.804Z,15.69
2022-11-07T18:59:31.234Z,15.60
2022-11-07T19:04:33.874Z,15.55
2022-11-07T19:09:36.729Z,15.44
2022-11-07T19:14:38.103Z,15.37
2022-11-07T19:19:39.505Z,15.45
2022-11-07T19:24:40.925Z,15.51
2022-11-07T19:29:42.391Z,15.49
2022-11-07T19:34:43.857Z,15.43
2022-11-07T19:39:45.302Z,15.42
2022-11-07T19:44:51.619Z,15.43
2022-11-07T19:49:55.484Z,15.43
2022-11-07T19:54:56.919Z,15.47
2022-11-07T19:59:58.306Z,15.39
2022-11-07T20:04:59.929Z,15.31
2022-11-07T20:10:01.561Z,15.21
2022-11-07T20:15:03.337Z,15.11
2022-11-07T20:20:09.540Z,14.99
2022-11-07T20:25:14.708Z,14.87
2022-11-07T20:30:16.183Z,14.68
2022-11-07T20:35:17.614Z,14.47
2022-11-07T20:40:19.002Z,14.34
2022-11-07T20:45:20.407Z,14.25
2022-11-07T20:50:21.892Z,14.18
2022-11-07T20:55:23.269Z,14.15
2022-11-07T21:00:25.422Z,14.20
2022-11-07T21:05:26.904Z,14.15
2022-11-07T21:10:28.299Z,14.11
2022-11-07T21:15:29.710Z,14.07
2022-11-07T21:20:31.168Z,14.05
2022-11-07T21:25:42.859Z,13.97
2022-11-07T21:30:45.917Z,13.91
2022-11-07T21:35:47.367Z,13.88
2022-11-07T21:40:48.755Z,13.82
2022-11-07T21:45:50.204Z,13.79
2022-11-07T21:50:51.633Z,13.75
2022-11-07T21:55:53.006Z,13.69
2022-11-07T22:00:54.576Z,13.70
2022-11-07T22:05:55.956Z,13.67
2022-11-07T22:11:00.445Z,13.59
2022-11-07T22:16:07.419Z,13.49
2022-11-07T22:21:11.719Z,13.40
2022-11-07T22:26:19.066Z,13.29
2022-11-07T22:31:25.972Z,13.19
2022-11-07T22:36:28.426Z,13.05
2022-11-07T22:41:30.212Z,12.94
2022-11-07T22:46:31.759Z,12.81
2022-11-07T22:51:34.904Z,12.72
2022-11-07T22:56:36.892Z,12.66
2022-11-07T23:01:40.809Z,12.57
2022-11-07T23:06:42.264Z,12.50
2022-11-07T23:11:46.464Z,12.40
2022-11-07T23:16:55.481Z,12.28
2022-11-07T23:21:56.855Z,12.19
2022-11-07T23:26:58.284Z,12.09
2022-11-07T23:31:59.688Z,11.99
2022-11-07T23:37:03.041Z,11.92
2022-11-07T23:42:04.388Z,11.86
2022-11-07T23:47:24.251Z,11.76
2022-11-07T23:52:25.602Z,11.68
2022-11-07T23:57:26.931Z,11.62
